sensor_id;sensor_type;location;lat;lon;timestamp;temperature;humidity
41928;DHT22;27616;51.420;6.788;2023-08-31T00:00:08;12.00;99.90
41928;DHT22;27616;51.420;6.788;2023-08-31T00:02:35;12.00;99.90
41928;DHT22;27616;51.420;6.788;2023-08-31T00:05:01;12.00;99.90
41928;DHT22;27616;51.420;6.788;2023-08-31T00:07:26;12.00;99.90
41928;DHT22;27616;51.420;6.788;2023-08-31T00:09:52;12.00;99.90
41928;DHT22;27616;51.420;6.788;2023-08-31T00:12:17;12.00;99.90
41928;DHT22;27616;51.420;6.788;2023-08-31T00:14:43;12.00;99.90
41928;DHT22;27616;51.420;6.788;2023-08-31T00:17:09;11.90;99.90
41928;DHT22;27616;51.420;6.788;2023-08-31T00:19:34;11.90;99.90
41928;DHT22;27616;51.420;6.788;2023-08-31T00:22:01;11.90;99.90
41928;DHT22;27616;51.420;6.788;2023-08-31T00:24:26;11.90;99.90
41928;DHT22;27616;51.420;6.788;2023-08-31T00:26:53;12.00;99.90
41928;DHT22;27616;51.420;6.788;2023-08-31T00:29:19;12.00;99.90
41928;DHT22;27616;51.420;6.788;2023-08-31T00:31:45;12.00;99.90
41928;DHT22;27616;51.420;6.788;2023-08-31T00:34:13;12.00;99.90
41928;DHT22;27616;51.420;6.788;2023-08-31T00:36:43;12.00;99.90
41928;DHT22;27616;51.420;6.788;2023-08-31T00:39:09;11.90;99.90
41928;DHT22;27616;51.420;6.788;2023-08-31T00:41:37;11.90;99.90
41928;DHT22;27616;51.420;6.788;2023-08-31T00:44:04;11.90;99.90
41928;DHT22;27616;51.420;6.788;2023-08-31T00:46:34;11.90;99.90
41928;DHT22;27616;51.420;6.788;2023-08-31T00:49:00;12.00;99.90
41928;DHT22;27616;51.420;6.788;2023-08-31T00:51:26;12.00;99.90
41928;DHT22;27616;51.420;6.788;2023-08-31T00:53:52;12.00;99.90
41928;DHT22;27616;51.420;6.788;2023-08-31T00:56:21;12.10;99.90
41928;DHT22;27616;51.420;6.788;2023-08-31T00:58:47;12.10;99.90
41928;DHT22;27616;51.420;6.788;2023-08-31T01:04:16;12.20;99.90
41928;DHT22;27616;51.420;6.788;2023-08-31T01:11:52;12.20;99.90
41928;DHT22;27616;51.420;6.788;2023-08-31T01:14:25;12.20;99.90
41928;DHT22;27616;51.420;6.788;2023-08-31T01:16:51;12.20;99.90
41928;DHT22;27616;51.420;6.788;2023-08-31T01:19:44;12.20;99.90
41928;DHT22;27616;51.420;6.788;2023-08-31T01:22:21;12.30;99.90
41928;DHT22;27616;51.420;6.788;2023-08-31T01:24:50;12.40;99.90
41928;DHT22;27616;51.420;6.788;2023-08-31T01:27:17;12.40;99.90
41928;DHT22;27616;51.420;6.788;2023-08-31T01:29:44;12.30;99.90
41928;DHT22;27616;51.420;6.788;2023-08-31T01:32:10;12.30;99.90
41928;DHT22;27616;51.420;6.788;2023-08-31T01:34:37;12.20;99.90
41928;DHT22;27616;51.420;6.788;2023-08-31T01:37:19;12.30;99.90
41928;DHT22;27616;51.420;6.788;2023-08-31T01:39:55;12.30;99.90
41928;DHT22;27616;51.420;6.788;2023-08-31T01:42:26;12.30;99.90
41928;DHT22;27616;51.420;6.788;2023-08-31T01:44:55;12.20;99.90
41928;DHT22;27616;51.420;6.788;2023-08-31T01:47:21;12.20;99.90
41928;DHT22;27616;51.420;6.788;2023-08-31T01:49:47;12.20;99.90
41928;DHT22;27616;51.420;6.788;2023-08-31T01:52:12;12.10;99.90
41928;DHT22;27616;51.420;6.788;2023-08-31T01:54:38;12.10;99.90
41928;DHT22;27616;51.420;6.788;2023-08-31T01:57:05;12.10;99.90
41928;DHT22;27616;51.420;6.788;2023-08-31T01:59:33;12.00;99.90
41928;DHT22;27616;51.420;6.788;2023-08-31T02:01:59;12.10;99.90
41928;DHT22;27616;51.420;6.788;2023-08-31T02:04:25;12.00;99.90
41928;DHT22;27616;51.420;6.788;2023-08-31T02:06:50;12.00;99.90
41928;DHT22;27616;51.420;6.788;2023-08-31T02:09:16;12.00;99.90
41928;DHT22;27616;51.420;6.788;2023-08-31T02:11:42;11.90;99.90
41928;DHT22;27616;51.420;6.788;2023-08-31T02:14:07;12.00;99.90
41928;DHT22;27616;51.420;6.788;2023-08-31T02:16:34;12.00;99.90
41928;DHT22;27616;51.420;6.788;2023-08-31T02:18:59;12.00;99.90
41928;DHT22;27616;51.420;6.788;2023-08-31T02:21:25;12.00;99.90
41928;DHT22;27616;51.420;6.788;2023-08-31T02:23:52;11.90;99.90
41928;DHT22;27616;51.420;6.788;2023-08-31T02:26:18;11.90;99.90
41928;DHT22;27616;51.420;6.788;2023-08-31T02:28:45;11.90;99.90
41928;DHT22;27616;51.420;6.788;2023-08-31T02:31:11;11.90;99.90
41928;DHT22;27616;51.420;6.788;2023-08-31T02:33:40;11.80;99.90
41928;DHT22;27616;51.420;6.788;2023-08-31T02:36:05;11.80;99.90
41928;DHT22;27616;51.420;6.788;2023-08-31T02:38:31;11.90;99.90
41928;DHT22;27616;51.420;6.788;2023-08-31T02:40:57;11.90;99.90
41928;DHT22;27616;51.420;6.788;2023-08-31T02:43:23;11.80;99.90
41928;DHT22;27616;51.420;6.788;2023-08-31T02:45:50;11.90;99.90
41928;DHT22;27616;51.420;6.788;2023-08-31T02:48:15;11.90;99.90
41928;DHT22;27616;51.420;6.788;2023-08-31T02:50:41;11.90;99.90
41928;DHT22;27616;51.420;6.788;2023-08-31T02:53:07;11.80;99.90
41928;DHT22;27616;51.420;6.788;2023-08-31T02:55:33;11.80;99.90
41928;DHT22;27616;51.420;6.788;2023-08-31T02:57:59;11.80;99.90
41928;DHT22;27616;51.420;6.788;2023-08-31T03:00:25;11.80;99.90
41928;DHT22;27616;51.420;6.788;2023-08-31T03:02:51;11.70;99.90
41928;DHT22;27616;51.420;6.788;2023-08-31T03:05:19;11.70;99.90
41928;DHT22;27616;51.420;6.788;2023-08-31T03:07:47;11.70;99.90
41928;DHT22;27616;51.420;6.788;2023-08-31T03:10:13;11.60;99.90
41928;DHT22;27616;51.420;6.788;2023-08-31T03:12:38;11.70;99.90
41928;DHT22;27616;51.420;6.788;2023-08-31T03:15:05;11.70;99.90
41928;DHT22;27616;51.420;6.788;2023-08-31T03:17:31;11.70;99.90
41928;DHT22;27616;51.420;6.788;2023-08-31T03:19:57;11.60;99.90
41928;DHT22;27616;51.420;6.788;2023-08-31T03:22:23;11.60;99.90
41928;DHT22;27616;51.420;6.788;2023-08-31T03:24:48;11.60;99.90
41928;DHT22;27616;51.420;6.788;2023-08-31T03:27:14;11.60;99.90
41928;DHT22;27616;51.420;6.788;2023-08-31T03:29:41;11.60;99.90
41928;DHT22;27616;51.420;6.788;2023-08-31T03:32:07;11.60;99.90
41928;DHT22;27616;51.420;6.788;2023-08-31T03:34:33;11.60;99.90
41928;DHT22;27616;51.420;6.788;2023-08-31T03:36:59;11.60;99.90
41928;DHT22;27616;51.420;6.788;2023-08-31T03:39:25;11.60;99.90
41928;DHT22;27616;51.420;6.788;2023-08-31T03:41:51;11.60;99.90
41928;DHT22;27616;51.420;6.788;2023-08-31T03:44:17;11.60;99.90
41928;DHT22;27616;51.420;6.788;2023-08-31T03:46:43;11.70;99.90
41928;DHT22;27616;51.420;6.788;2023-08-31T03:49:09;11.70;99.90
41928;DHT22;27616;51.420;6.788;2023-08-31T03:51:34;11.60;99.90
41928;DHT22;27616;51.420;6.788;2023-08-31T03:54:01;11.60;99.90
41928;DHT22;27616;51.420;6.788;2023-08-31T03:56:27;11.60;99.90
41928;DHT22;27616;51.420;6.788;2023-08-31T03:58:53;11.60;99.90
41928;DHT22;27616;51.420;6.788;2023-08-31T04:01:19;11.60;99.90
41928;DHT22;27616;51.420;6.788;2023-08-31T04:03:45;11.60;99.90
41928;DHT22;27616;51.420;6.788;2023-08-31T04:06:11;11.50;99.90
41928;DHT22;27616;51.420;6.788;2023-08-31T04:08:40;11.60;99.90
41928;DHT22;27616;51.420;6.788;2023-08-31T04:11:05;11.60;99.90
41928;DHT22;27616;51.420;6.788;2023-08-31T04:13:31;11.60;99.90
41928;DHT22;27616;51.420;6.788;2023-08-31T04:15:57;11.60;99.90
41928;DHT22;27616;51.420;6.788;2023-08-31T04:18:22;11.60;99.90
41928;DHT22;27616;51.420;6.788;2023-08-31T04:20:49;11.60;99.90
41928;DHT22;27616;51.420;6.788;2023-08-31T04:23:18;11.60;99.90
41928;DHT22;27616;51.420;6.788;2023-08-31T04:25:45;11.60;99.90
41928;DHT22;27616;51.420;6.788;2023-08-31T04:28:11;11.60;99.90
41928;DHT22;27616;51.420;6.788;2023-08-31T04:30:37;11.50;99.90
41928;DHT22;27616;51.420;6.788;2023-08-31T04:33:02;11.50;99.90
41928;DHT22;27616;51.420;6.788;2023-08-31T04:35:30;11.50;99.90
41928;DHT22;27616;51.420;6.788;2023-08-31T04:37:57;11.50;99.90
41928;DHT22;27616;51.420;6.788;2023-08-31T04:40:23;11.50;99.90
41928;DHT22;27616;51.420;6.788;2023-08-31T04:42:50;11.50;99.90
41928;DHT22;27616;51.420;6.788;2023-08-31T04:45:16;11.50;99.90
41928;DHT22;27616;51.420;6.788;2023-08-31T04:47:42;11.40;99.90
41928;DHT22;27616;51.420;6.788;2023-08-31T04:50:08;11.50;99.90
41928;DHT22;27616;51.420;6.788;2023-08-31T04:52:34;11.50;99.90
41928;DHT22;27616;51.420;6.788;2023-08-31T04:55:01;11.50;99.90
41928;DHT22;27616;51.420;6.788;2023-08-31T04:57:27;11.50;99.90
41928;DHT22;27616;51.420;6.788;2023-08-31T04:59:53;11.50;99.90
41928;DHT22;27616;51.420;6.788;2023-08-31T05:02:19;11.50;99.90
41928;DHT22;27616;51.420;6.788;2023-08-31T05:04:45;11.50;99.90
41928;DHT22;27616;51.420;6.788;2023-08-31T05:07:10;11.50;99.90
41928;DHT22;27616;51.420;6.788;2023-08-31T05:09:36;11.50;99.90
41928;DHT22;27616;51.420;6.788;2023-08-31T05:12:02;11.50;99.90
41928;DHT22;27616;51.420;6.788;2023-08-31T05:14:28;11.50;99.90
41928;DHT22;27616;51.420;6.788;2023-08-31T05:16:54;11.50;99.90
41928;DHT22;27616;51.420;6.788;2023-08-31T05:19:20;11.60;99.90
41928;DHT22;27616;51.420;6.788;2023-08-31T05:21:46;11.50;99.90
41928;DHT22;27616;51.420;6.788;2023-08-31T05:24:11;11.60;99.90
41928;DHT22;27616;51.420;6.788;2023-08-31T05:26:37;11.60;99.90
41928;DHT22;27616;51.420;6.788;2023-08-31T05:29:02;11.60;99.90
41928;DHT22;27616;51.420;6.788;2023-08-31T05:31:31;11.60;99.90
41928;DHT22;27616;51.420;6.788;2023-08-31T05:33:57;11.60;99.90
41928;DHT22;27616;51.420;6.788;2023-08-31T05:36:23;11.60;99.90
41928;DHT22;27616;51.420;6.788;2023-08-31T05:38:51;11.50;99.90
41928;DHT22;27616;51.420;6.788;2023-08-31T05:41:16;11.60;99.90
41928;DHT22;27616;51.420;6.788;2023-08-31T05:43:42;11.60;99.90
41928;DHT22;27616;51.420;6.788;2023-08-31T05:46:08;11.70;99.90
41928;DHT22;27616;51.420;6.788;2023-08-31T05:48:35;11.70;99.90
41928;DHT22;27616;51.420;6.788;2023-08-31T05:51:02;11.70;99.90
41928;DHT22;27616;51.420;6.788;2023-08-31T05:53:29;11.70;99.90
41928;DHT22;27616;51.420;6.788;2023-08-31T05:55:56;11.70;99.90
41928;DHT22;27616;51.420;6.788;2023-08-31T05:58:35;11.80;99.90
41928;DHT22;27616;51.420;6.788;2023-08-31T06:01:01;11.70;99.90
41928;DHT22;27616;51.420;6.788;2023-08-31T06:03:28;11.80;99.90
41928;DHT22;27616;51.420;6.788;2023-08-31T06:05:57;11.90;99.90
41928;DHT22;27616;51.420;6.788;2023-08-31T06:08:23;11.90;99.90
41928;DHT22;27616;51.420;6.788;2023-08-31T06:10:49;11.90;99.90
41928;DHT22;27616;51.420;6.788;2023-08-31T06:13:15;12.00;99.90
41928;DHT22;27616;51.420;6.788;2023-08-31T06:15:41;12.20;99.90
41928;DHT22;27616;51.420;6.788;2023-08-31T06:18:06;12.30;99.90
41928;DHT22;27616;51.420;6.788;2023-08-31T06:20:32;12.30;99.90
41928;DHT22;27616;51.420;6.788;2023-08-31T06:22:59;12.40;99.90
41928;DHT22;27616;51.420;6.788;2023-08-31T06:25:25;12.60;99.90
41928;DHT22;27616;51.420;6.788;2023-08-31T06:27:50;12.80;99.90
41928;DHT22;27616;51.420;6.788;2023-08-31T06:30:17;13.00;99.90
41928;DHT22;27616;51.420;6.788;2023-08-31T06:32:44;13.10;99.90
41928;DHT22;27616;51.420;6.788;2023-08-31T06:35:11;13.20;99.90
41928;DHT22;27616;51.420;6.788;2023-08-31T06:37:38;13.40;99.90
41928;DHT22;27616;51.420;6.788;2023-08-31T06:40:09;13.50;99.90
41928;DHT22;27616;51.420;6.788;2023-08-31T06:42:36;13.60;99.90
41928;DHT22;27616;51.420;6.788;2023-08-31T06:45:03;13.70;99.90
41928;DHT22;27616;51.420;6.788;2023-08-31T06:47:29;13.80;99.90
41928;DHT22;27616;51.420;6.788;2023-08-31T06:49:54;14.00;99.90
41928;DHT22;27616;51.420;6.788;2023-08-31T06:52:20;14.00;99.90
41928;DHT22;27616;51.420;6.788;2023-08-31T06:54:46;14.10;99.90
41928;DHT22;27616;51.420;6.788;2023-08-31T06:57:11;14.20;99.90
41928;DHT22;27616;51.420;6.788;2023-08-31T06:59:37;14.10;99.90
41928;DHT22;27616;51.420;6.788;2023-08-31T07:02:02;14.20;99.90
41928;DHT22;27616;51.420;6.788;2023-08-31T07:04:28;14.30;99.90
41928;DHT22;27616;51.420;6.788;2023-08-31T07:06:53;14.30;99.90
41928;DHT22;27616;51.420;6.788;2023-08-31T07:09:19;14.40;99.90
41928;DHT22;27616;51.420;6.788;2023-08-31T07:11:45;14.50;99.90
41928;DHT22;27616;51.420;6.788;2023-08-31T07:14:10;14.60;99.90
41928;DHT22;27616;51.420;6.788;2023-08-31T07:16:36;14.60;99.90
41928;DHT22;27616;51.420;6.788;2023-08-31T07:19:02;14.70;99.90
41928;DHT22;27616;51.420;6.788;2023-08-31T07:21:28;14.90;99.90
41928;DHT22;27616;51.420;6.788;2023-08-31T07:23:53;15.00;99.90
41928;DHT22;27616;51.420;6.788;2023-08-31T07:26:20;15.10;99.90
41928;DHT22;27616;51.420;6.788;2023-08-31T07:28:46;15.20;99.90
41928;DHT22;27616;51.420;6.788;2023-08-31T07:31:12;15.20;99.90
41928;DHT22;27616;51.420;6.788;2023-08-31T07:33:38;15.30;99.90
41928;DHT22;27616;51.420;6.788;2023-08-31T07:36:04;15.40;99.90
41928;DHT22;27616;51.420;6.788;2023-08-31T07:38:31;15.40;99.90
41928;DHT22;27616;51.420;6.788;2023-08-31T07:40:57;15.30;99.90
41928;DHT22;27616;51.420;6.788;2023-08-31T07:43:23;15.40;99.90
41928;DHT22;27616;51.420;6.788;2023-08-31T07:45:49;15.40;99.90
41928;DHT22;27616;51.420;6.788;2023-08-31T07:48:15;15.50;99.90
41928;DHT22;27616;51.420;6.788;2023-08-31T07:50:41;15.50;99.90
41928;DHT22;27616;51.420;6.788;2023-08-31T07:53:07;15.60;99.90
41928;DHT22;27616;51.420;6.788;2023-08-31T07:55:33;15.70;99.90
41928;DHT22;27616;51.420;6.788;2023-08-31T07:58:00;15.70;99.90
41928;DHT22;27616;51.420;6.788;2023-08-31T08:00:26;15.90;99.90
41928;DHT22;27616;51.420;6.788;2023-08-31T08:02:52;15.80;99.90
41928;DHT22;27616;51.420;6.788;2023-08-31T08:05:17;15.90;99.90
41928;DHT22;27616;51.420;6.788;2023-08-31T08:07:43;16.00;99.90
41928;DHT22;27616;51.420;6.788;2023-08-31T08:10:11;16.10;99.90
41928;DHT22;27616;51.420;6.788;2023-08-31T08:12:41;16.10;99.90
41928;DHT22;27616;51.420;6.788;2023-08-31T08:15:11;16.20;99.90
41928;DHT22;27616;51.420;6.788;2023-08-31T08:17:36;16.20;99.90
41928;DHT22;27616;51.420;6.788;2023-08-31T08:20:03;16.30;99.90
41928;DHT22;27616;51.420;6.788;2023-08-31T08:22:28;16.50;99.90
41928;DHT22;27616;51.420;6.788;2023-08-31T08:24:54;16.60;99.90
41928;DHT22;27616;51.420;6.788;2023-08-31T08:27:20;16.70;99.90
41928;DHT22;27616;51.420;6.788;2023-08-31T08:29:46;16.80;99.90
41928;DHT22;27616;51.420;6.788;2023-08-31T08:32:12;16.70;99.90
41928;DHT22;27616;51.420;6.788;2023-08-31T08:34:38;16.80;99.90
41928;DHT22;27616;51.420;6.788;2023-08-31T08:37:04;16.80;99.90
41928;DHT22;27616;51.420;6.788;2023-08-31T08:39:30;16.90;99.90
41928;DHT22;27616;51.420;6.788;2023-08-31T08:41:58;17.00;99.90
41928;DHT22;27616;51.420;6.788;2023-08-31T08:44:25;17.10;99.90
41928;DHT22;27616;51.420;6.788;2023-08-31T08:46:54;17.20;99.90
41928;DHT22;27616;51.420;6.788;2023-08-31T08:49:23;17.30;99.90
41928;DHT22;27616;51.420;6.788;2023-08-31T08:51:49;17.40;99.90
41928;DHT22;27616;51.420;6.788;2023-08-31T08:54:17;17.40;99.90
41928;DHT22;27616;51.420;6.788;2023-08-31T08:56:43;17.50;99.90
41928;DHT22;27616;51.420;6.788;2023-08-31T08:59:09;17.50;99.90
41928;DHT22;27616;51.420;6.788;2023-08-31T09:01:39;17.60;99.90
41928;DHT22;27616;51.420;6.788;2023-08-31T09:04:05;17.70;99.90
41928;DHT22;27616;51.420;6.788;2023-08-31T09:06:32;17.60;99.90
41928;DHT22;27616;51.420;6.788;2023-08-31T09:08:58;17.60;99.90
41928;DHT22;27616;51.420;6.788;2023-08-31T09:11:24;17.60;99.90
41928;DHT22;27616;51.420;6.788;2023-08-31T09:13:51;17.50;99.90
41928;DHT22;27616;51.420;6.788;2023-08-31T09:16:29;17.40;99.90
41928;DHT22;27616;51.420;6.788;2023-08-31T09:18:58;17.50;99.90
41928;DHT22;27616;51.420;6.788;2023-08-31T09:21:37;17.50;99.90
41928;DHT22;27616;51.420;6.788;2023-08-31T09:24:05;17.60;99.90
41928;DHT22;27616;51.420;6.788;2023-08-31T09:26:37;17.60;99.90
41928;DHT22;27616;51.420;6.788;2023-08-31T09:29:05;17.60;99.90
41928;DHT22;27616;51.420;6.788;2023-08-31T09:31:30;17.60;99.90
41928;DHT22;27616;51.420;6.788;2023-08-31T09:33:56;17.70;99.90
41928;DHT22;27616;51.420;6.788;2023-08-31T09:36:22;17.90;99.90
41928;DHT22;27616;51.420;6.788;2023-08-31T09:38:48;18.10;99.90
41928;DHT22;27616;51.420;6.788;2023-08-31T09:41:14;18.30;99.90
41928;DHT22;27616;51.420;6.788;2023-08-31T09:43:41;18.30;99.90
41928;DHT22;27616;51.420;6.788;2023-08-31T09:46:08;18.30;99.90
41928;DHT22;27616;51.420;6.788;2023-08-31T09:48:35;18.40;99.90
41928;DHT22;27616;51.420;6.788;2023-08-31T09:51:04;18.50;99.90
41928;DHT22;27616;51.420;6.788;2023-08-31T09:53:31;18.70;99.90
41928;DHT22;27616;51.420;6.788;2023-08-31T09:55:57;18.80;99.90
41928;DHT22;27616;51.420;6.788;2023-08-31T09:58:23;18.90;99.90
41928;DHT22;27616;51.420;6.788;2023-08-31T10:00:50;18.80;99.90
41928;DHT22;27616;51.420;6.788;2023-08-31T10:03:16;18.70;99.90
41928;DHT22;27616;51.420;6.788;2023-08-31T10:05:46;18.70;99.90
41928;DHT22;27616;51.420;6.788;2023-08-31T10:08:12;18.70;99.90
41928;DHT22;27616;51.420;6.788;2023-08-31T10:10:39;18.70;99.90
41928;DHT22;27616;51.420;6.788;2023-08-31T10:13:05;18.60;99.90
41928;DHT22;27616;51.420;6.788;2023-08-31T10:15:35;18.50;99.90
41928;DHT22;27616;51.420;6.788;2023-08-31T10:18:05;18.50;99.90
41928;DHT22;27616;51.420;6.788;2023-08-31T10:20:32;18.40;99.90
41928;DHT22;27616;51.420;6.788;2023-08-31T10:23:02;18.50;99.90
41928;DHT22;27616;51.420;6.788;2023-08-31T10:28:19;19.20;99.90
41928;DHT22;27616;51.420;6.788;2023-08-31T10:31:01;19.10;99.90
41928;DHT22;27616;51.420;6.788;2023-08-31T10:33:40;19.20;99.90
41928;DHT22;27616;51.420;6.788;2023-08-31T10:36:15;19.50;99.90
41928;DHT22;27616;51.420;6.788;2023-08-31T10:38:42;19.80;99.90
41928;DHT22;27616;51.420;6.788;2023-08-31T10:43:54;19.70;99.90
41928;DHT22;27616;51.420;6.788;2023-08-31T10:46:35;19.70;99.90
41928;DHT22;27616;51.420;6.788;2023-08-31T10:51:40;20.00;99.90
41928;DHT22;27616;51.420;6.788;2023-08-31T10:54:11;20.10;99.90
41928;DHT22;27616;51.420;6.788;2023-08-31T10:56:56;20.20;99.90
41928;DHT22;27616;51.420;6.788;2023-08-31T10:59:50;20.10;99.90
41928;DHT22;27616;51.420;6.788;2023-08-31T11:02:30;19.80;99.90
41928;DHT22;27616;51.420;6.788;2023-08-31T11:05:16;19.70;99.90
41928;DHT22;27616;51.420;6.788;2023-08-31T11:07:50;19.80;99.90
41928;DHT22;27616;51.420;6.788;2023-08-31T11:10:23;19.70;99.90
41928;DHT22;27616;51.420;6.788;2023-08-31T11:12:53;19.60;99.90
41928;DHT22;27616;51.420;6.788;2023-08-31T11:15:21;19.50;99.90
41928;DHT22;27616;51.420;6.788;2023-08-31T11:17:50;19.40;99.90
41928;DHT22;27616;51.420;6.788;2023-08-31T11:20:18;19.20;99.90
41928;DHT22;27616;51.420;6.788;2023-08-31T11:22:49;18.90;99.90
41928;DHT22;27616;51.420;6.788;2023-08-31T11:25:19;18.60;99.90
41928;DHT22;27616;51.420;6.788;2023-08-31T11:27:55;18.30;99.90
41928;DHT22;27616;51.420;6.788;2023-08-31T11:30:21;18.40;99.90
41928;DHT22;27616;51.420;6.788;2023-08-31T11:32:53;18.40;99.90
41928;DHT22;27616;51.420;6.788;2023-08-31T11:35:22;18.50;99.90
41928;DHT22;27616;51.420;6.788;2023-08-31T11:37:56;18.80;99.90
41928;DHT22;27616;51.420;6.788;2023-08-31T11:40:22;18.80;99.90
41928;DHT22;27616;51.420;6.788;2023-08-31T11:42:48;19.00;99.90
41928;DHT22;27616;51.420;6.788;2023-08-31T11:45:18;19.00;99.90
41928;DHT22;27616;51.420;6.788;2023-08-31T11:47:44;19.10;99.90
41928;DHT22;27616;51.420;6.788;2023-08-31T11:50:11;19.10;99.90
41928;DHT22;27616;51.420;6.788;2023-08-31T11:52:38;19.10;99.90
41928;DHT22;27616;51.420;6.788;2023-08-31T11:55:10;19.00;99.90
41928;DHT22;27616;51.420;6.788;2023-08-31T11:57:36;19.10;99.90
41928;DHT22;27616;51.420;6.788;2023-08-31T12:00:02;19.10;99.90
41928;DHT22;27616;51.420;6.788;2023-08-31T12:02:35;19.20;99.90
41928;DHT22;27616;51.420;6.788;2023-08-31T12:05:00;19.40;99.90
41928;DHT22;27616;51.420;6.788;2023-08-31T12:07:26;19.50;99.90
41928;DHT22;27616;51.420;6.788;2023-08-31T12:09:51;19.70;99.90
41928;DHT22;27616;51.420;6.788;2023-08-31T12:12:20;19.90;99.90
41928;DHT22;27616;51.420;6.788;2023-08-31T12:14:47;20.00;99.90
41928;DHT22;27616;51.420;6.788;2023-08-31T12:17:12;20.10;99.90
41928;DHT22;27616;51.420;6.788;2023-08-31T12:19:39;20.20;99.90
41928;DHT22;27616;51.420;6.788;2023-08-31T12:22:05;20.30;99.90
41928;DHT22;27616;51.420;6.788;2023-08-31T12:24:39;20.40;99.90
41928;DHT22;27616;51.420;6.788;2023-08-31T12:27:08;20.30;99.90
41928;DHT22;27616;51.420;6.788;2023-08-31T12:29:34;20.10;99.90
41928;DHT22;27616;51.420;6.788;2023-08-31T12:32:00;20.10;99.90
41928;DHT22;27616;51.420;6.788;2023-08-31T12:34:26;20.00;99.90
41928;DHT22;27616;51.420;6.788;2023-08-31T12:36:51;20.00;99.90
41928;DHT22;27616;51.420;6.788;2023-08-31T12:39:18;20.10;99.90
41928;DHT22;27616;51.420;6.788;2023-08-31T12:41:43;20.10;99.90
41928;DHT22;27616;51.420;6.788;2023-08-31T12:44:09;20.20;99.90
41928;DHT22;27616;51.420;6.788;2023-08-31T12:46:35;20.20;99.90
41928;DHT22;27616;51.420;6.788;2023-08-31T12:49:01;20.30;99.90
41928;DHT22;27616;51.420;6.788;2023-08-31T12:51:31;20.50;99.90
41928;DHT22;27616;51.420;6.788;2023-08-31T12:53:58;20.50;99.90
41928;DHT22;27616;51.420;6.788;2023-08-31T12:56:23;20.60;99.90
41928;DHT22;27616;51.420;6.788;2023-08-31T12:58:50;20.60;99.90
41928;DHT22;27616;51.420;6.788;2023-08-31T13:01:17;20.50;99.90
41928;DHT22;27616;51.420;6.788;2023-08-31T13:03:43;20.60;99.90
41928;DHT22;27616;51.420;6.788;2023-08-31T13:06:09;20.60;99.90
41928;DHT22;27616;51.420;6.788;2023-08-31T13:08:35;20.70;99.90
41928;DHT22;27616;51.420;6.788;2023-08-31T13:11:00;20.70;99.90
41928;DHT22;27616;51.420;6.788;2023-08-31T13:13:26;20.80;99.90
41928;DHT22;27616;51.420;6.788;2023-08-31T13:15:52;20.60;99.90
41928;DHT22;27616;51.420;6.788;2023-08-31T13:18:18;20.80;99.90
41928;DHT22;27616;51.420;6.788;2023-08-31T13:20:51;20.70;99.90
41928;DHT22;27616;51.420;6.788;2023-08-31T13:23:17;20.80;99.90
41928;DHT22;27616;51.420;6.788;2023-08-31T13:25:43;20.80;99.90
41928;DHT22;27616;51.420;6.788;2023-08-31T13:28:08;21.00;99.90
41928;DHT22;27616;51.420;6.788;2023-08-31T13:30:35;21.00;99.90
41928;DHT22;27616;51.420;6.788;2023-08-31T13:33:00;20.90;99.90
41928;DHT22;27616;51.420;6.788;2023-08-31T13:35:27;20.80;99.90
41928;DHT22;27616;51.420;6.788;2023-08-31T13:37:52;20.70;99.90
41928;DHT22;27616;51.420;6.788;2023-08-31T13:40:18;20.80;99.90
41928;DHT22;27616;51.420;6.788;2023-08-31T13:42:58;20.70;99.90
41928;DHT22;27616;51.420;6.788;2023-08-31T13:45:31;20.60;99.90
41928;DHT22;27616;51.420;6.788;2023-08-31T13:47:58;20.50;99.90
41928;DHT22;27616;51.420;6.788;2023-08-31T13:50:26;20.40;99.90
41928;DHT22;27616;51.420;6.788;2023-08-31T13:52:51;20.40;99.90
41928;DHT22;27616;51.420;6.788;2023-08-31T13:55:17;20.40;99.90
41928;DHT22;27616;51.420;6.788;2023-08-31T13:57:43;20.40;99.90
41928;DHT22;27616;51.420;6.788;2023-08-31T14:00:09;20.30;99.90
41928;DHT22;27616;51.420;6.788;2023-08-31T14:02:38;20.20;99.90
41928;DHT22;27616;51.420;6.788;2023-08-31T14:05:05;20.10;99.70
41928;DHT22;27616;51.420;6.788;2023-08-31T14:07:36;20.00;99.40
41928;DHT22;27616;51.420;6.788;2023-08-31T14:10:02;20.00;99.40
41928;DHT22;27616;51.420;6.788;2023-08-31T14:12:30;19.90;99.60
41928;DHT22;27616;51.420;6.788;2023-08-31T14:14:56;19.90;99.90
41928;DHT22;27616;51.420;6.788;2023-08-31T14:17:23;19.80;99.90
41928;DHT22;27616;51.420;6.788;2023-08-31T14:19:49;19.50;99.90
41928;DHT22;27616;51.420;6.788;2023-08-31T14:22:14;19.00;99.90
41928;DHT22;27616;51.420;6.788;2023-08-31T14:24:40;18.40;99.90
41928;DHT22;27616;51.420;6.788;2023-08-31T14:27:06;17.90;99.90
41928;DHT22;27616;51.420;6.788;2023-08-31T14:29:32;17.60;99.90
41928;DHT22;27616;51.420;6.788;2023-08-31T14:31:57;17.30;99.90
41928;DHT22;27616;51.420;6.788;2023-08-31T14:34:23;17.20;99.90
41928;DHT22;27616;51.420;6.788;2023-08-31T14:36:50;17.10;99.90
41928;DHT22;27616;51.420;6.788;2023-08-31T14:39:16;16.90;99.90
41928;DHT22;27616;51.420;6.788;2023-08-31T14:41:42;16.90;99.90
41928;DHT22;27616;51.420;6.788;2023-08-31T14:44:07;16.90;99.90
41928;DHT22;27616;51.420;6.788;2023-08-31T14:46:33;16.90;99.90
41928;DHT22;27616;51.420;6.788;2023-08-31T14:48:59;16.90;99.90
41928;DHT22;27616;51.420;6.788;2023-08-31T14:51:24;16.90;99.90
41928;DHT22;27616;51.420;6.788;2023-08-31T14:53:50;16.90;99.90
41928;DHT22;27616;51.420;6.788;2023-08-31T14:56:16;17.00;99.90
41928;DHT22;27616;51.420;6.788;2023-08-31T14:58:42;16.90;99.90
41928;DHT22;27616;51.420;6.788;2023-08-31T15:01:07;16.90;99.90
41928;DHT22;27616;51.420;6.788;2023-08-31T15:03:33;16.90;99.90
41928;DHT22;27616;51.420;6.788;2023-08-31T15:05:59;16.80;99.90
41928;DHT22;27616;51.420;6.788;2023-08-31T15:08:35;16.80;99.90
41928;DHT22;27616;51.420;6.788;2023-08-31T15:11:02;16.80;99.90
41928;DHT22;27616;51.420;6.788;2023-08-31T15:13:28;16.80;99.90
41928;DHT22;27616;51.420;6.788;2023-08-31T15:15:54;16.70;99.90
41928;DHT22;27616;51.420;6.788;2023-08-31T15:18:19;16.70;99.90
41928;DHT22;27616;51.420;6.788;2023-08-31T15:20:45;16.70;99.90
41928;DHT22;27616;51.420;6.788;2023-08-31T15:23:10;16.70;99.90
41928;DHT22;27616;51.420;6.788;2023-08-31T15:25:36;16.70;99.90
41928;DHT22;27616;51.420;6.788;2023-08-31T15:28:02;16.70;99.90
41928;DHT22;27616;51.420;6.788;2023-08-31T15:30:29;16.60;99.90
41928;DHT22;27616;51.420;6.788;2023-08-31T15:33:00;16.60;99.90
41928;DHT22;27616;51.420;6.788;2023-08-31T15:35:25;16.60;99.90
41928;DHT22;27616;51.420;6.788;2023-08-31T15:37:51;16.60;99.90
41928;DHT22;27616;51.420;6.788;2023-08-31T15:40:17;16.60;99.90
41928;DHT22;27616;51.420;6.788;2023-08-31T15:42:43;16.60;99.90
41928;DHT22;27616;51.420;6.788;2023-08-31T15:45:08;16.60;99.90